createdAt,value
2018-07-16T00:00:43.717Z,100140.05
2018-07-16T00:03:12.930Z,100136.70
2018-07-16T00:05:42.087Z,100142.23
2018-07-16T00:08:11.480Z,100141.50
2018-07-16T00:10:40.755Z,100145.15
2018-07-16T00:13:10.059Z,100141.17
2018-07-16T00:15:39.426Z,100148.09
2018-07-16T00:18:08.657Z,100147.23
2018-07-16T00:20:37.948Z,100145.48
2018-07-16T00:23:07.329Z,100149.28
2018-07-16T00:25:36.488Z,100156.47
2018-07-16T00:28:05.958Z,100159.99
2018-07-16T00:30:35.201Z,100170.97
2018-07-16T00:33:04.472Z,100184.31
2018-07-16T00:35:33.794Z,100186.78
2018-07-16T00:38:03.037Z,100193.92
2018-07-16T00:40:32.211Z,100202.16
2018-07-16T00:43:01.462Z,100192.20
2018-07-16T00:45:30.685Z,100195.04
2018-07-16T00:47:59.985Z,100195.78
2018-07-16T00:50:29.267Z,100190.78
2018-07-16T00:52:58.560Z,100189.14
2018-07-16T00:55:27.819Z,100188.94
2018-07-16T00:57:57.058Z,100190.87
2018-07-16T01:00:26.218Z,100185.91
2018-07-16T01:02:55.473Z,100195.11
2018-07-16T01:05:24.718Z,100201.70
2018-07-16T01:07:53.959Z,100203.19
2018-07-16T01:10:23.221Z,100199.64
2018-07-16T01:12:52.553Z,100191.09
2018-07-16T01:15:21.822Z,100193.10
2018-07-16T01:17:51.074Z,100198.09
2018-07-16T01:20:20.389Z,100192.27
2018-07-16T01:22:49.641Z,100195.59
2018-07-16T01:25:19.018Z,100190.17
2018-07-16T01:27:48.301Z,100186.94
2018-07-16T01:30:17.521Z,100185.69
2018-07-16T01:32:46.766Z,100179.97
2018-07-16T01:35:16.043Z,100181.84
2018-07-16T01:37:45.549Z,100177.27
2018-07-16T01:40:14.855Z,100182.99
2018-07-16T01:42:44.307Z,100180.80
2018-07-16T01:45:13.507Z,100176.73
2018-07-16T01:47:42.777Z,100169.97
2018-07-16T01:50:12.027Z,100166.20
2018-07-16T01:52:41.478Z,100167.98
2018-07-16T01:55:10.971Z,100159.22
2018-07-16T01:57:40.274Z,100163.07
2018-07-16T02:00:09.532Z,100163.19
2018-07-16T02:02:38.842Z,100158.92
2018-07-16T02:05:07.909Z,100157.33
2018-07-16T02:07:37.214Z,100156.81
2018-07-16T02:10:06.487Z,100156.81
2018-07-16T02:12:35.823Z,100160.98
2018-07-16T02:15:05.047Z,100156.81
2018-07-16T02:17:34.665Z,100154.27
2018-07-16T02:20:05.606Z,100158.92
2018-07-16T02:22:35.107Z,100152.39
2018-07-16T02:25:04.418Z,100153.98
2018-07-16T02:27:33.782Z,100147.45
2018-07-16T02:30:03.128Z,100143.48
2018-07-16T02:32:32.485Z,100140.88
2018-07-16T02:35:01.825Z,100140.56
2018-07-16T02:37:31.082Z,100137.23
2018-07-16T02:40:00.428Z,100135.75
2018-07-16T02:42:29.887Z,100133.92
2018-07-16T02:44:59.224Z,100135.93
2018-07-16T02:47:28.406Z,100135.23
2018-07-16T02:49:57.629Z,100134.09
2018-07-16T02:52:27.000Z,100133.36
2018-07-16T02:54:56.455Z,100139.50
2018-07-16T02:57:25.810Z,100138.87
2018-07-16T02:59:54.923Z,100142.63
2018-07-16T03:02:24.294Z,100147.11
2018-07-16T03:04:53.565Z,100141.17
2018-07-16T03:07:22.833Z,100151.53
2018-07-16T03:09:52.127Z,100161.73
2018-07-16T03:12:21.498Z,100158.27
2018-07-16T03:14:50.854Z,100166.08
2018-07-16T03:17:20.094Z,100158.58
2018-07-16T03:19:49.413Z,100166.33
2018-07-16T03:22:18.591Z,100163.06
2018-07-16T03:24:47.954Z,100161.30
2018-07-16T03:27:17.315Z,100165.41
2018-07-16T03:29:46.533Z,100164.31
2018-07-16T03:32:15.834Z,100160.16
2018-07-16T03:34:45.253Z,100159.99
2018-07-16T03:37:14.522Z,100158.98
2018-07-16T03:39:43.851Z,100153.14
2018-07-16T03:42:13.111Z,100150.05
2018-07-16T03:44:42.509Z,100151.08
2018-07-16T03:47:11.902Z,100148.94
2018-07-16T03:49:41.255Z,100152.94
2018-07-16T03:52:10.770Z,100150.66
2018-07-16T03:54:40.075Z,100152.12
2018-07-16T03:57:09.766Z,100144.48
2018-07-16T03:59:39.472Z,100144.48
2018-07-16T04:02:08.850Z,100135.83
2018-07-16T04:04:38.082Z,100140.59
2018-07-16T04:07:07.635Z,100143.16
2018-07-16T04:09:36.861Z,100132.37
2018-07-16T04:12:06.256Z,100136.07
2018-07-16T04:14:35.483Z,100134.48
2018-07-16T04:17:04.737Z,100136.55
2018-07-16T04:19:34.079Z,100131.86
2018-07-16T04:22:03.385Z,100135.27
2018-07-16T04:24:32.732Z,100133.35
2018-07-16T04:27:02.060Z,100136.89
2018-07-16T04:29:31.308Z,100137.88
2018-07-16T04:32:00.675Z,100144.39
2018-07-16T04:34:30.008Z,100142.14
2018-07-16T04:36:59.191Z,100133.30
2018-07-16T04:39:28.486Z,100135.02
2018-07-16T04:41:57.846Z,100136.72
2018-07-16T04:44:27.114Z,100125.41
2018-07-16T04:46:56.340Z,100131.58
2018-07-16T04:49:25.593Z,100126.80
2018-07-16T04:51:54.854Z,100119.39
2018-07-16T04:54:24.200Z,100118.45
2018-07-16T04:56:53.487Z,100122.95
2018-07-16T04:59:22.994Z,100124.63
2018-07-16T05:01:52.343Z,100125.23
2018-07-16T05:04:21.713Z,100125.91
2018-07-16T05:06:50.942Z,100123.83
2018-07-16T05:09:20.204Z,100126.40
2018-07-16T05:11:49.484Z,100121.67
2018-07-16T05:14:18.817Z,100120.83
2018-07-16T05:16:50.023Z,100118.43
2018-07-16T05:19:19.441Z,100123.73
2018-07-16T05:21:48.822Z,100126.04
2018-07-16T05:24:18.471Z,100122.86
2018-07-16T05:26:47.642Z,100122.20
2018-07-16T05:29:16.970Z,100127.78
2018-07-16T05:31:46.461Z,100140.58
2018-07-16T05:34:15.805Z,100132.72
2018-07-16T05:36:45.069Z,100136.52
2018-07-16T05:39:14.253Z,100137.86
2018-07-16T05:41:43.566Z,100131.12
2018-07-16T05:44:13.026Z,100133.95
2018-07-16T05:46:42.489Z,100130.95
2018-07-16T05:49:12.340Z,100132.54
2018-07-16T05:51:41.680Z,100135.85
2018-07-16T05:54:11.286Z,100138.51
2018-07-16T05:56:40.913Z,100143.06
2018-07-16T05:59:10.074Z,100145.99
2018-07-16T06:01:39.320Z,100148.56
2018-07-16T06:04:08.701Z,100146.64
2018-07-16T06:06:38.207Z,100138.87
2018-07-16T06:09:07.938Z,100154.29
2018-07-16T06:11:38.060Z,100148.87
2018-07-16T06:14:07.455Z,100156.88
2018-07-16T06:16:37.256Z,100153.69
2018-07-16T06:19:06.950Z,100150.84
2018-07-16T06:21:36.390Z,100148.00
2018-07-16T06:24:05.898Z,100151.51
2018-07-16T06:26:35.238Z,100153.13
2018-07-16T06:29:04.526Z,100149.89
2018-07-16T06:31:34.026Z,100143.98
2018-07-16T06:34:03.340Z,100144.26
2018-07-16T06:36:32.795Z,100153.52
2018-07-16T06:39:08.336Z,100155.37
2018-07-16T06:41:37.923Z,100148.61
2018-07-16T06:44:07.591Z,100151.00
2018-07-16T06:46:36.869Z,100151.72
2018-07-16T06:49:06.127Z,100144.81
2018-07-16T06:51:35.468Z,100145.86
2018-07-16T06:54:05.022Z,100149.25
2018-07-16T06:56:34.446Z,100156.38
2018-07-16T06:59:04.326Z,100151.30
2018-07-16T07:01:33.586Z,100154.19
2018-07-16T07:04:02.842Z,100150.16
2018-07-16T07:06:33.476Z,100146.70
2018-07-16T07:09:02.815Z,100143.16
2018-07-16T07:11:32.211Z,100138.58
2018-07-16T07:14:01.482Z,100144.19
2018-07-16T07:16:31.406Z,100146.14
2018-07-16T07:19:00.913Z,100148.23
2018-07-16T07:21:30.230Z,100137.82
2018-07-16T07:23:59.535Z,100141.58
2018-07-16T07:26:29.161Z,100139.84
2018-07-16T07:28:58.388Z,100135.33
2018-07-16T07:31:27.737Z,100142.34
2018-07-16T07:33:57.743Z,100130.73
2018-07-16T07:36:27.064Z,100133.74
2018-07-16T07:38:56.423Z,100138.58
2018-07-16T07:41:25.627Z,100134.05
2018-07-16T07:43:55.055Z,100136.34
2018-07-16T07:46:24.465Z,100135.68
2018-07-16T07:48:53.730Z,100144.61
2018-07-16T07:51:23.058Z,100131.12
2018-07-16T07:53:52.398Z,100131.75
2018-07-16T07:56:22.003Z,100132.90
2018-07-16T07:58:51.330Z,100134.70
2018-07-16T08:01:20.585Z,100141.23
2018-07-16T08:03:50.182Z,100131.74
2018-07-16T08:06:20.436Z,100134.83
2018-07-16T08:08:49.776Z,100138.20
2018-07-16T08:11:19.327Z,100135.31
2018-07-16T08:13:48.763Z,100136.09
2018-07-16T08:16:18.526Z,100129.70
2018-07-16T08:18:47.810Z,100135.02
2018-07-16T08:21:17.257Z,100123.94
2018-07-16T08:23:46.471Z,100124.20
2018-07-16T08:26:15.828Z,100127.47
2018-07-16T08:28:45.095Z,100127.19
2018-07-16T08:31:14.331Z,100122.92
2018-07-16T08:33:43.742Z,100125.08
2018-07-16T08:36:13.135Z,100124.69
2018-07-16T08:38:42.527Z,100124.38
2018-07-16T08:41:11.946Z,100128.17
2018-07-16T08:43:41.339Z,100142.34
2018-07-16T08:46:10.809Z,100129.64
2018-07-16T08:48:40.116Z,100132.32
2018-07-16T08:51:09.438Z,100134.64
2018-07-16T08:53:38.706Z,100137.05
2018-07-16T08:56:08.062Z,100134.59
2018-07-16T08:58:37.303Z,100134.42
2018-07-16T09:01:06.683Z,100132.30
2018-07-16T09:03:35.926Z,100131.36
2018-07-16T09:06:06.249Z,100132.98
2018-07-16T09:08:36.526Z,100136.00
2018-07-16T09:11:06.049Z,100133.82
2018-07-16T09:13:35.325Z,100138.59
2018-07-16T09:16:04.720Z,100138.08
2018-07-16T09:18:34.087Z,100130.19
2018-07-16T09:21:03.516Z,100134.95
2018-07-16T09:23:32.885Z,100131.87
2018-07-16T09:26:02.178Z,100119.52
2018-07-16T09:28:31.486Z,100127.84
2018-07-16T09:31:00.719Z,100124.27
2018-07-16T09:33:30.116Z,100118.17
2018-07-16T09:35:59.524Z,100118.59
2018-07-16T09:38:28.796Z,100114.61
2018-07-16T09:40:58.242Z,100120.66
2018-07-16T09:43:27.601Z,100110.82
2018-07-16T09:45:56.829Z,100114.53
2018-07-16T09:48:26.257Z,100107.88
2018-07-16T09:50:55.518Z,100095.64
2018-07-16T09:53:24.837Z,100107.88
2018-07-16T09:55:54.214Z,100101.44
2018-07-16T09:58:23.635Z,100100.13
2018-07-16T10:00:58.130Z,100099.23
2018-07-16T10:03:27.344Z,100093.57
2018-07-16T10:05:56.763Z,100094.28
2018-07-16T10:08:26.152Z,100088.48
2018-07-16T10:10:55.419Z,100082.05
2018-07-16T10:13:24.769Z,100079.42
2018-07-16T10:15:54.142Z,100081.33
2018-07-16T10:18:23.728Z,100073.64
2018-07-16T10:20:53.259Z,100073.13
2018-07-16T10:23:23.832Z,100062.17
2018-07-16T10:25:53.368Z,100069.74
2018-07-16T10:28:22.970Z,100059.45
2018-07-16T10:30:52.164Z,100069.53
2018-07-16T10:33:21.579Z,100067.34
2018-07-16T10:35:50.809Z,100071.42
2018-07-16T10:38:20.056Z,100071.72
2018-07-16T10:40:49.822Z,100061.09
2018-07-16T10:43:19.383Z,100053.19
2018-07-16T10:45:49.039Z,100047.98
2018-07-16T10:48:18.358Z,100057.43
2018-07-16T10:50:47.528Z,100052.76
2018-07-16T10:53:16.754Z,100041.06
2018-07-16T10:55:46.021Z,100043.97
2018-07-16T10:58:17.217Z,100034.16
2018-07-16T11:00:47.505Z,100039.81
2018-07-16T11:03:16.914Z,100042.67
2018-07-16T11:05:46.179Z,100036.08
2018-07-16T11:08:15.565Z,100041.30
2018-07-16T11:10:45.048Z,100045.03
2018-07-16T11:13:14.473Z,100038.23
2018-07-16T11:15:43.816Z,100039.38
2018-07-16T11:18:13.138Z,100034.21
2018-07-16T11:20:42.294Z,100034.67
2018-07-16T11:23:11.761Z,100037.88
2018-07-16T11:25:41.214Z,100031.26
2018-07-16T11:28:10.573Z,100028.11
2018-07-16T11:30:39.730Z,100018.42
2018-07-16T11:33:09.183Z,100018.60
2018-07-16T11:35:38.572Z,100018.71
2018-07-16T11:38:07.952Z,100013.89
2018-07-16T11:40:37.326Z,100013.34
2018-07-16T11:43:06.582Z,100014.70
2018-07-16T11:45:35.848Z,100006.28
2018-07-16T11:48:05.055Z,100010.23
2018-07-16T11:50:34.223Z,99997.23
2018-07-16T11:53:03.915Z,99992.47
2018-07-16T11:55:33.382Z,99992.28
2018-07-16T11:58:03.023Z,99983.63
2018-07-16T12:00:32.234Z,99976.12
2018-07-16T12:03:01.587Z,99975.73
2018-07-16T12:05:31.258Z,99969.34
2018-07-16T12:08:00.803Z,99974.64
2018-07-16T12:10:30.170Z,99970.94
2018-07-16T12:12:59.534Z,99966.12
2018-07-16T12:15:28.886Z,99967.92
2018-07-16T12:17:58.309Z,99967.98
2018-07-16T12:20:27.509Z,99961.99
2018-07-16T12:22:56.911Z,99959.00
2018-07-16T12:25:26.156Z,99959.86
2018-07-16T12:27:55.434Z,99960.77
2018-07-16T12:30:25.242Z,99953.98
2018-07-16T12:32:55.798Z,99949.59
2018-07-16T12:35:25.612Z,99939.96
2018-07-16T12:37:55.144Z,99937.84
2018-07-16T12:40:24.614Z,99929.05
2018-07-16T12:42:54.147Z,99925.75
2018-07-16T12:45:23.739Z,99927.95
2018-07-16T12:47:53.598Z,99924.36
2018-07-16T12:50:23.157Z,99919.02
2018-07-16T12:52:53.115Z,99919.05
2018-07-16T12:55:22.940Z,99911.08
2018-07-16T12:57:52.623Z,99914.14
2018-07-16T13:00:22.097Z,99915.48
2018-07-16T13:02:51.567Z,99914.75
2018-07-16T13:05:20.991Z,99912.01
2018-07-16T13:07:50.431Z,99918.45
2018-07-16T13:10:19.805Z,99919.23
2018-07-16T13:12:49.338Z,99920.58
2018-07-16T13:15:18.656Z,99923.24
2018-07-16T13:17:47.966Z,99918.16
2018-07-16T13:20:17.244Z,99922.32
2018-07-16T13:22:46.578Z,99919.78
2018-07-16T13:25:15.954Z,99917.44
2018-07-16T13:27:45.354Z,99921.86
2018-07-16T13:30:14.627Z,99918.62
2018-07-16T13:32:43.987Z,99931.15
2018-07-16T13:35:13.373Z,99925.45
2018-07-16T13:38:13.912Z,99917.99
2018-07-16T13:40:43.354Z,99909.50
2018-07-16T13:43:12.711Z,99910.20
2018-07-16T13:45:41.971Z,99899.89
2018-07-16T13:48:11.237Z,99893.29
2018-07-16T13:50:40.661Z,99897.23
2018-07-16T13:53:10.182Z,99897.06
2018-07-16T13:55:39.796Z,99893.64
2018-07-16T13:58:09.311Z,99898.79
2018-07-16T14:00:38.882Z,99898.68
2018-07-16T14:03:08.347Z,99900.02
2018-07-16T14:05:37.915Z,99895.87
2018-07-16T14:08:07.577Z,99902.02
2018-07-16T14:10:37.125Z,99903.33
2018-07-16T14:13:07.035Z,99904.55
2018-07-16T14:15:36.261Z,99900.07
2018-07-16T14:18:06.009Z,99898.44
2018-07-16T14:20:35.469Z,99910.18
2018-07-16T14:23:04.897Z,99904.16
2018-07-16T14:25:34.654Z,99899.86
2018-07-16T14:28:03.913Z,99903.00
2018-07-16T14:30:33.203Z,99897.08
2018-07-16T14:33:02.602Z,99899.09
2018-07-16T14:35:32.030Z,99894.28
2018-07-16T14:38:01.414Z,99900.36
2018-07-16T14:40:30.734Z,99884.01
2018-07-16T14:43:00.020Z,99887.35
2018-07-16T14:45:29.330Z,99887.61
2018-07-16T14:47:58.491Z,99880.76
2018-07-16T14:50:27.720Z,99875.20
2018-07-16T14:52:57.091Z,99875.30
2018-07-16T14:55:26.434Z,99882.67
2018-07-16T14:57:55.817Z,99885.00
2018-07-16T15:00:26.403Z,99886.59
2018-07-16T15:02:55.936Z,99886.37
2018-07-16T15:05:25.383Z,99879.84
2018-07-16T15:07:54.762Z,99880.67
2018-07-16T15:10:24.158Z,99880.17
2018-07-16T15:12:53.569Z,99876.75
2018-07-16T15:15:23.110Z,99873.02
2018-07-16T15:17:52.343Z,99870.78
2018-07-16T15:20:21.781Z,99866.81
2018-07-16T15:22:51.153Z,99868.14
2018-07-16T15:25:20.719Z,99863.98
2018-07-16T15:27:49.984Z,99861.56
2018-07-16T15:30:19.401Z,99849.30
2018-07-16T15:32:48.891Z,99845.37
2018-07-16T15:35:18.211Z,99844.73
2018-07-16T15:37:47.553Z,99841.48
2018-07-16T15:40:16.584Z,99833.47
2018-07-16T15:42:46.141Z,99835.77
2018-07-16T15:45:15.158Z,99830.70
2018-07-16T15:47:44.378Z,99821.30
2018-07-16T15:50:13.837Z,99831.70
2018-07-16T15:52:43.185Z,99833.16
2018-07-16T15:55:12.499Z,99831.97
2018-07-16T15:57:41.760Z,99825.23
2018-07-16T16:00:11.625Z,99821.84
2018-07-16T16:02:40.925Z,99827.04
2018-07-16T16:05:10.315Z,99823.28
2018-07-16T16:07:39.674Z,99818.75
2018-07-16T16:10:08.910Z,99818.84
2018-07-16T16:12:38.194Z,99812.80
2018-07-16T16:15:07.535Z,99813.98
2018-07-16T16:17:36.851Z,99811.28
2018-07-16T16:20:06.481Z,99819.89
2018-07-16T16:22:35.720Z,99810.42
2018-07-16T16:25:05.032Z,99810.74
2018-07-16T16:27:34.288Z,99808.56
2018-07-16T16:30:03.624Z,99805.83
2018-07-16T16:32:32.875Z,99810.49
2018-07-16T16:35:02.123Z,99807.43
2018-07-16T16:37:31.537Z,99810.75
2018-07-16T16:40:00.817Z,99817.77
2018-07-16T16:42:30.318Z,99815.49
2018-07-16T16:44:59.655Z,99814.67
2018-07-16T16:47:28.917Z,99814.63
2018-07-16T16:49:59.420Z,99818.36
2018-07-16T16:52:28.785Z,99814.30
2018-07-16T16:54:58.165Z,99817.75
2018-07-16T16:57:27.539Z,99823.27
2018-07-16T16:59:56.894Z,99818.97
2018-07-16T17:02:26.543Z,99824.24
2018-07-16T17:04:55.907Z,99824.88
2018-07-16T17:07:25.163Z,99820.34
2018-07-16T17:09:54.511Z,99818.75
2018-07-16T17:12:23.763Z,99816.80
2018-07-16T17:14:53.083Z,99817.98
2018-07-16T17:17:22.470Z,99818.85
2018-07-16T17:19:51.805Z,99813.89
2018-07-16T17:22:21.185Z,99813.03
2018-07-16T17:24:50.542Z,99813.17
2018-07-16T17:27:19.869Z,99809.30
2018-07-16T17:29:49.208Z,99810.41
2018-07-16T17:32:18.674Z,99807.61
2018-07-16T17:34:48.056Z,99813.23
2018-07-16T17:37:17.314Z,99807.48
2018-07-16T17:39:46.634Z,99804.89
2018-07-16T17:42:15.912Z,99800.78
2018-07-16T17:44:45.246Z,99806.23
2018-07-16T17:47:14.523Z,99809.72
2018-07-16T17:49:44.485Z,99803.97
2018-07-16T17:52:13.998Z,99810.21
2018-07-16T17:54:43.583Z,99811.30
2018-07-16T17:57:12.821Z,99811.82
2018-07-16T17:59:42.164Z,99818.45
2018-07-16T18:02:11.516Z,99816.88
2018-07-16T18:04:40.944Z,99820.69
2018-07-16T18:07:10.363Z,99822.16
2018-07-16T18:09:39.746Z,99831.20
2018-07-16T18:12:09.074Z,99822.78
2018-07-16T18:14:38.332Z,99825.22
2018-07-16T18:17:07.679Z,99828.96
2018-07-16T18:19:37.254Z,99827.85
2018-07-16T18:22:06.554Z,99828.27
2018-07-16T18:24:35.842Z,99827.18
2018-07-16T18:27:05.172Z,99828.33
2018-07-16T18:29:34.433Z,99823.39
2018-07-16T18:32:03.849Z,99828.41
2018-07-16T18:34:33.131Z,99834.85
2018-07-16T18:37:02.382Z,99836.25
2018-07-16T18:39:31.631Z,99831.91
2018-07-16T18:42:00.907Z,99837.80
2018-07-16T18:44:30.155Z,99838.22
2018-07-16T18:46:59.585Z,99834.65
2018-07-16T18:49:28.963Z,99834.70
2018-07-16T18:51:58.173Z,99835.31
2018-07-16T18:54:27.539Z,99837.86
2018-07-16T18:56:56.875Z,99846.38
2018-07-16T18:59:26.260Z,99848.94
2018-07-16T19:01:56.886Z,99847.91
2018-07-16T19:04:26.214Z,99849.89
2018-07-16T19:06:59.555Z,99841.87
2018-07-16T19:09:28.838Z,99854.52
2018-07-16T19:11:58.114Z,99854.52
2018-07-16T19:14:27.495Z,99856.70
2018-07-16T19:16:56.828Z,99848.16
2018-07-16T19:19:26.293Z,99852.77
2018-07-16T19:21:55.742Z,99852.50
2018-07-16T19:24:25.092Z,99858.26
2018-07-16T19:26:54.430Z,99850.81
2018-07-16T19:29:23.694Z,99857.52
2018-07-16T19:31:52.927Z,99864.89
2018-07-16T19:34:22.198Z,99869.92
2018-07-16T19:36:51.639Z,99875.77
2018-07-16T19:39:21.414Z,99877.06
2018-07-16T19:41:51.251Z,99885.63
2018-07-16T19:44:20.542Z,99882.92
2018-07-16T19:46:50.263Z,99885.16
2018-07-16T19:49:19.646Z,99886.83
2018-07-16T19:51:49.179Z,99891.20
2018-07-16T19:54:18.552Z,99885.72
2018-07-16T19:56:47.807Z,99891.47
2018-07-16T19:59:17.144Z,99889.27
2018-07-16T20:01:46.370Z,99890.86
2018-07-16T20:04:15.652Z,99889.66
2018-07-16T20:06:45.278Z,99890.41
2018-07-16T20:09:14.652Z,99898.89
2018-07-16T20:11:44.010Z,99895.06
2018-07-16T20:14:13.261Z,99896.31
2018-07-16T20:16:43.579Z,99898.50
2018-07-16T20:19:13.142Z,99904.27
2018-07-16T20:21:42.527Z,99904.78
2018-07-16T20:24:11.776Z,99902.86
2018-07-16T20:26:41.136Z,99914.01
2018-07-16T20:29:10.361Z,99923.84
2018-07-16T20:31:39.589Z,99923.53
2018-07-16T20:34:08.815Z,99927.24
2018-07-16T20:36:38.160Z,99934.34
2018-07-16T20:39:10.175Z,99936.39
2018-07-16T20:41:39.584Z,99938.19
2018-07-16T20:44:08.834Z,99941.95
2018-07-16T20:46:38.070Z,99939.37
2018-07-16T20:49:07.466Z,99943.89
2018-07-16T20:51:36.699Z,99933.25
2018-07-16T20:54:05.942Z,99947.45
2018-07-16T20:56:35.183Z,99939.06
2018-07-16T20:59:04.426Z,99951.09
2018-07-16T21:01:34.003Z,99945.88
2018-07-16T21:04:03.256Z,99953.84
2018-07-16T21:06:32.555Z,99957.68
2018-07-16T21:09:01.849Z,99955.63
2018-07-16T21:11:31.190Z,99964.27
2018-07-16T21:14:00.610Z,99955.28
2018-07-16T21:16:30.477Z,99956.21
2018-07-16T21:18:59.815Z,99958.69
2018-07-16T21:21:29.312Z,99962.00
2018-07-16T21:23:58.517Z,99965.31
2018-07-16T21:26:27.826Z,99962.00
2018-07-16T21:28:57.186Z,99975.48
2018-07-16T21:31:26.342Z,99972.94
2018-07-16T21:33:55.899Z,99972.25
2018-07-16T21:36:25.075Z,99981.27
2018-07-16T21:38:58.622Z,99981.76
2018-07-16T21:41:28.524Z,99982.59
2018-07-16T21:43:57.770Z,99983.91
2018-07-16T21:46:26.993Z,99983.53
2018-07-16T21:48:56.337Z,99990.60
2018-07-16T21:51:25.639Z,99990.11
2018-07-16T21:53:55.037Z,99988.53
2018-07-16T21:56:24.422Z,99991.14
2018-07-16T21:58:53.622Z,99990.61
2018-07-16T22:01:23.002Z,99994.30
2018-07-16T22:03:52.161Z,99995.10
2018-07-16T22:06:21.411Z,99996.31
2018-07-16T22:08:50.771Z,99997.44
2018-07-16T22:11:20.130Z,99992.78
2018-07-16T22:13:49.531Z,99987.49
2018-07-16T22:16:19.078Z,99989.73
2018-07-16T22:18:48.359Z,99982.33
2018-07-16T22:21:17.644Z,99987.25
2018-07-16T22:23:47.056Z,99987.49
2018-07-16T22:26:16.309Z,99988.16
2018-07-16T22:28:45.579Z,99985.09
2018-07-16T22:31:14.808Z,99990.83
2018-07-16T22:33:44.036Z,99996.29
2018-07-16T22:36:13.419Z,100004.77
2018-07-16T22:38:42.666Z,100004.95
2018-07-16T22:41:12.125Z,100011.66
2018-07-16T22:43:41.352Z,100013.18
2018-07-16T22:46:10.654Z,100011.13
2018-07-16T22:48:40.077Z,100015.98
2018-07-16T22:51:09.346Z,100007.99
2018-07-16T22:53:38.762Z,100010.88
2018-07-16T22:56:08.119Z,100010.47
2018-07-16T22:58:37.463Z,100008.95
2018-07-16T23:01:06.812Z,100011.09
2018-07-16T23:03:36.169Z,100001.62
2018-07-16T23:06:05.565Z,100007.40
2018-07-16T23:08:34.884Z,100002.39
2018-07-16T23:11:04.252Z,100002.48
2018-07-16T23:13:33.591Z,100011.06
2018-07-16T23:16:02.999Z,100007.77
2018-07-16T23:18:32.368Z,100009.90
2018-07-16T23:21:01.635Z,100012.34
2018-07-16T23:23:31.098Z,100018.02
2018-07-16T23:26:00.238Z,100017.20
2018-07-16T23:28:29.552Z,100017.66
2018-07-16T23:30:58.739Z,100019.49
2018-07-16T23:33:28.090Z,100020.93
2018-07-16T23:35:57.487Z,100023.59
2018-07-16T23:38:26.909Z,100018.31
2018-07-16T23:40:56.282Z,100015.76
2018-07-16T23:43:25.602Z,100020.11
2018-07-16T23:45:54.942Z,100014.53
2018-07-16T23:48:24.187Z,100018.74
2018-07-16T23:50:53.444Z,100018.45
2018-07-16T23:53:22.707Z,100014.53
2018-07-16T23:55:52.065Z,100015.82
2018-07-16T23:58:21.370Z,100011.83
